Kozienice, Poland

2:50 PM CEST on April 18, 2015 (GMT +0200)
Dabrowka Nagorna | | Change Station
CLOSE
Current Station
Personal Weather Station
Location: Dąbrówka Nagórna-Wieś, MAZOWIECKIE
Elevation: 584 ft
Nearby Weather Stations

Elev 584 ft 51.45 °N, 21.09 °E | Updated 56 seconds ago

Overcast
Overcast
45.3 °F
Feels Like 41 °F
N
9.2
Wind Variable Wind from NW
Gusts 13.0 mph

Today
High -- | Low -- °F
--% Chance of Precip.
Yesterday
High -- | Low -- °F
Precip. -- in
5:32 AM 7:34 PM
Waning Crescent, 0% visible
Pressure 30.01 in
Visibility 6.2 miles
Clouds Scattered Clouds 3800 ft
Scattered Clouds 4300 ft
Windchill 41 °F
Dew Point 32 °F
Humidity 60%
Rainfall 0.00 in
Snow Depth Not available.
UV 5 out of 12
Pollen Not available.
Air Quality Not available.
Flu Activity Not available.
METAR EPWA 181230Z 33013KT 9999 -SHRA SCT038CB SCT043 07/M01 Q1016 NOSIG

More Conditions Fewer Conditions

Pressure 30.01 in
Visibility 6.2 miles
Clouds Scattered Clouds 3800 ft
Scattered Clouds 4300 ft
Windchill 41 °F
Dew Point 32 °F
Humidity 60%
Rainfall 0.00 in
Snow Depth Not available.
UV 5 out of 12
Pollen Not available.
Air Quality Not available.
Flu Activity Not available.
METAR EPWA 181230Z 33013KT 9999 -SHRA SCT038CB SCT043 07/M01 Q1016 NOSIG

More Conditions Fewer Conditions

10-Day Weather Forecast

Almanac

Astronomy

Apr. 18, 2015 Rise Set
Actual Time
Civil Twilight
Nautical Twilight
Astronomical Twilight
Moon
Length of Visible Light
Length of Day
Tomorrow will be .
, % of the Moon is Illuminated

Today's Extremes

Country Highs Country Lows

Community

WunderPhotos

Upload Photos

1,814,377 photos uploaded!

WunderBlogs® & News

Nearby

Air Quality

  Air Quality AQ Index Pollutant
Not available.

Snow Depth

Station Depth Elevation

Earthquake Activity

City Distance Mag. Time & Date
Minimum magnitude displayed is 2.5.

Coastal Water Temperatures

Place Temperature

Stations

Nearby Weather Stations

Station Location Temp. Windchill Dew Point Humidity Wind Precip. Elev Updated Type